createdAt,value
2019-05-10T00:01:42.564Z,91.25
2019-05-10T00:04:32.241Z,92.02
2019-05-10T00:07:21.718Z,91.76
2019-05-10T00:09:52.315Z,92.24
2019-05-10T00:12:31.135Z,92.18
2019-05-10T00:15:02.642Z,91.99
2019-05-10T00:17:34.244Z,91.78
2019-05-10T00:20:07.377Z,91.41
2019-05-10T00:22:38.760Z,91.44
2019-05-10T00:25:10.227Z,90.59
2019-05-10T00:27:41.677Z,90.46
2019-05-10T00:30:13.406Z,90.93
2019-05-10T00:32:44.913Z,91.57
2019-05-10T00:35:16.231Z,91.87
2019-05-10T00:37:47.781Z,92.22
2019-05-10T00:40:19.052Z,92.03
2019-05-10T00:42:50.451Z,92.09
2019-05-10T00:45:21.822Z,92.09
2019-05-10T00:47:53.146Z,91.85
2019-05-10T00:50:24.543Z,92.27
2019-05-10T00:52:56.019Z,92.18
2019-05-10T00:55:27.419Z,92.08
2019-05-10T00:57:58.788Z,92.33
2019-05-10T01:00:30.259Z,92.44
2019-05-10T01:03:01.753Z,92.39
2019-05-10T01:05:33.214Z,92.10
2019-05-10T01:08:04.660Z,92.18
2019-05-10T01:10:36.012Z,92.22
2019-05-10T01:13:07.465Z,92.39
2019-05-10T01:15:38.912Z,92.23
2019-05-10T01:18:10.362Z,92.34
2019-05-10T01:20:41.805Z,92.59
2019-05-10T01:23:13.266Z,92.61
2019-05-10T01:25:45.732Z,92.62
2019-05-10T01:28:17.100Z,92.79
2019-05-10T01:30:48.705Z,92.73
2019-05-10T01:33:20.181Z,93.12
2019-05-10T01:35:51.559Z,92.82
2019-05-10T01:38:23.012Z,93.14
2019-05-10T01:40:54.537Z,93.06
2019-05-10T01:43:25.925Z,93.41
2019-05-10T01:45:57.309Z,93.39
2019-05-10T01:48:28.762Z,93.47
2019-05-10T01:51:00.244Z,93.52
2019-05-10T01:53:31.784Z,93.27
2019-05-10T01:56:03.220Z,93.46
2019-05-10T01:58:34.674Z,93.65
2019-05-10T02:01:06.042Z,93.57
2019-05-10T02:03:37.389Z,93.38
2019-05-10T02:06:08.831Z,93.47
2019-05-10T02:08:40.282Z,93.62
2019-05-10T02:11:11.627Z,93.86
2019-05-10T02:13:43.067Z,93.62
2019-05-10T02:16:14.426Z,93.69
2019-05-10T02:18:46.998Z,93.82
2019-05-10T02:21:18.550Z,93.88
2019-05-10T02:23:50.097Z,93.95
2019-05-10T02:26:21.564Z,93.91
2019-05-10T02:28:53.010Z,94.24
2019-05-10T02:31:25.575Z,94.54
2019-05-10T02:33:57.147Z,94.60
2019-05-10T02:36:28.585Z,93.90
2019-05-10T02:38:59.948Z,93.91
2019-05-10T02:41:31.309Z,93.79
2019-05-10T02:44:02.731Z,93.48
2019-05-10T02:46:34.129Z,93.57
2019-05-10T02:49:05.524Z,93.45
2019-05-10T02:51:36.975Z,93.04
2019-05-10T02:54:08.424Z,93.25
2019-05-10T02:56:40.029Z,93.29
2019-05-10T02:59:13.839Z,92.57
2019-05-10T03:01:46.077Z,92.44
2019-05-10T03:04:17.498Z,92.62
2019-05-10T03:06:51.900Z,92.39
2019-05-10T03:09:26.240Z,92.23
2019-05-10T03:12:00.501Z,91.75
2019-05-10T03:14:34.796Z,91.24
2019-05-10T03:17:08.214Z,91.22
2019-05-10T03:19:40.936Z,91.48
2019-05-10T03:22:14.031Z,91.41
2019-05-10T03:24:45.480Z,91.08
2019-05-10T03:27:17.013Z,91.14
2019-05-10T03:29:48.506Z,91.38
2019-05-10T03:32:19.925Z,91.47
2019-05-10T03:34:51.382Z,91.05
2019-05-10T03:37:22.785Z,90.24
2019-05-10T03:39:54.148Z,89.90
2019-05-10T03:42:25.651Z,89.73
2019-05-10T03:44:57.077Z,89.74
2019-05-10T03:47:28.648Z,89.58
2019-05-10T03:50:00.092Z,89.31
2019-05-10T03:52:31.638Z,89.56
2019-05-10T03:55:03.077Z,89.89
2019-05-10T03:57:34.532Z,89.98
2019-05-10T04:00:08.502Z,89.78
2019-05-10T04:02:39.910Z,89.68
2019-05-10T04:05:12.193Z,89.41
2019-05-10T04:07:43.697Z,89.06
2019-05-10T04:10:15.065Z,88.69
2019-05-10T04:12:46.648Z,88.09
2019-05-10T04:15:17.972Z,88.29
2019-05-10T04:17:50.347Z,88.59
2019-05-10T04:20:22.076Z,88.60
2019-05-10T04:22:53.476Z,88.10
2019-05-10T04:25:24.882Z,88.43
2019-05-10T04:27:56.405Z,87.67
2019-05-10T04:30:31.692Z,87.44
2019-05-10T04:33:00.970Z,87.67
2019-05-10T04:35:32.338Z,87.08
2019-05-10T04:38:03.940Z,86.71
2019-05-10T04:40:35.314Z,85.94
2019-05-10T04:43:06.785Z,85.21
2019-05-10T04:45:38.162Z,83.24
2019-05-10T04:48:09.747Z,84.04
2019-05-10T04:50:41.216Z,83.82
2019-05-10T04:53:12.588Z,84.70
2019-05-10T04:55:44.015Z,84.92
2019-05-10T04:58:15.403Z,84.13
2019-05-10T05:00:46.826Z,84.70
2019-05-10T05:03:18.280Z,84.86
2019-05-10T05:05:49.645Z,84.94
2019-05-10T05:08:21.061Z,84.94
2019-05-10T05:10:53.147Z,84.58
2019-05-10T05:13:24.596Z,84.03
2019-05-10T05:15:55.967Z,84.59
2019-05-10T05:18:27.407Z,85.16
2019-05-10T05:20:58.949Z,85.68
2019-05-10T05:23:30.394Z,85.37
2019-05-10T05:26:01.985Z,85.21
2019-05-10T05:28:33.483Z,85.04
2019-05-10T05:31:04.946Z,84.91
2019-05-10T05:33:36.320Z,85.23
2019-05-10T05:36:07.834Z,84.26
2019-05-10T05:38:40.643Z,84.65
2019-05-10T05:41:12.292Z,82.83
2019-05-10T05:43:46.197Z,83.00
2019-05-10T05:46:16.934Z,82.31
2019-05-10T05:48:51.296Z,81.29
2019-05-10T05:51:21.522Z,80.53
2019-05-10T05:53:53.069Z,80.81
2019-05-10T05:56:24.629Z,79.25
2019-05-10T05:58:56.126Z,77.72
2019-05-10T06:01:29.493Z,76.08
2019-05-10T06:04:06.311Z,75.88
2019-05-10T06:06:34.003Z,74.55
2019-05-10T06:09:07.478Z,72.90
2019-05-10T06:11:38.933Z,73.62
2019-05-10T06:14:12.595Z,72.29
2019-05-10T06:16:45.278Z,72.09
2019-05-10T06:19:20.576Z,71.44
2019-05-10T06:21:49.690Z,71.79
2019-05-10T06:24:21.095Z,73.03
2019-05-10T06:26:52.555Z,71.12
2019-05-10T06:29:24.088Z,68.00
2019-05-10T06:31:58.710Z,69.64
2019-05-10T06:34:32.068Z,71.09
2019-05-10T06:37:01.862Z,71.25
2019-05-10T06:39:33.270Z,71.79
2019-05-10T06:42:04.758Z,71.60
2019-05-10T06:44:36.163Z,71.36
2019-05-10T06:47:08.751Z,71.28
2019-05-10T06:49:48.279Z,69.39
2019-05-10T06:52:16.265Z,71.11
2019-05-10T06:54:46.826Z,71.15
2019-05-10T06:57:19.386Z,71.88
2019-05-10T06:59:50.717Z,69.31
2019-05-10T07:02:26.727Z,69.29
2019-05-10T07:04:55.370Z,69.43
2019-05-10T07:07:43.150Z,67.03
2019-05-10T07:10:08.389Z,68.15
2019-05-10T07:12:32.745Z,69.08
2019-05-10T07:15:06.588Z,67.54
2019-05-10T07:17:43.636Z,66.67
2019-05-10T07:20:11.235Z,65.19
2019-05-10T07:22:42.804Z,64.59
2019-05-10T07:25:14.283Z,65.79
2019-05-10T07:27:45.522Z,65.11
2019-05-10T07:30:19.819Z,67.22
2019-05-10T07:32:54.517Z,68.43
2019-05-10T07:35:24.304Z,68.03
2019-05-10T07:37:55.748Z,70.13
2019-05-10T07:40:27.823Z,67.55
2019-05-10T07:42:59.328Z,68.83
2019-05-10T07:45:30.854Z,67.85
2019-05-10T07:48:07.890Z,67.13
2019-05-10T07:50:35.378Z,69.07
2019-05-10T07:53:06.837Z,67.95
2019-05-10T07:55:38.336Z,69.49
2019-05-10T07:58:09.830Z,68.05
2019-05-10T08:00:44.498Z,68.73
2019-05-10T08:03:17.661Z,66.19
2019-05-10T08:05:54.986Z,67.02
2019-05-10T08:08:20.720Z,65.81
2019-05-10T08:10:52.104Z,64.71
2019-05-10T08:13:25.213Z,65.20
2019-05-10T08:15:59.442Z,63.61
2019-05-10T08:18:30.650Z,63.63
2019-05-10T08:21:10.691Z,63.19
2019-05-10T08:23:35.204Z,65.71
2019-05-10T08:26:11.038Z,63.90
2019-05-10T08:28:42.236Z,66.23
2019-05-10T08:31:13.211Z,62.59
2019-05-10T08:33:53.682Z,61.61
2019-05-10T08:36:18.827Z,61.49
2019-05-10T08:39:01.516Z,60.55
2019-05-10T08:41:23.441Z,59.57
2019-05-10T08:43:54.850Z,61.31
2019-05-10T08:46:34.982Z,61.05
2019-05-10T08:49:01.929Z,61.37
2019-05-10T08:51:34.507Z,62.61
2019-05-10T08:54:06.014Z,58.57
2019-05-10T08:56:37.569Z,59.90
2019-05-10T08:59:14.313Z,59.79
2019-05-10T09:01:46.935Z,58.79
2019-05-10T09:04:15.302Z,55.16
2019-05-10T09:06:47.646Z,56.22
2019-05-10T09:09:19.908Z,57.05
2019-05-10T09:11:52.248Z,52.72
2019-05-10T09:14:24.211Z,52.57
2019-05-10T09:17:00.524Z,57.88
2019-05-10T09:19:39.601Z,54.44
2019-05-10T09:22:02.170Z,54.58
2019-05-10T09:24:34.857Z,56.31
2019-05-10T09:27:06.937Z,56.64
2019-05-10T09:29:38.393Z,55.64
2019-05-10T09:32:12.406Z,55.38
2019-05-10T09:34:43.252Z,56.57
2019-05-10T09:37:17.699Z,57.70
2019-05-10T09:39:54.924Z,57.93
2019-05-10T09:42:26.474Z,58.00
2019-05-10T09:44:54.160Z,57.02
2019-05-10T09:47:25.643Z,56.85
2019-05-10T09:49:58.939Z,57.00
2019-05-10T09:52:30.645Z,55.04
2019-05-10T09:55:04.069Z,56.52
2019-05-10T09:57:38.034Z,53.46
2019-05-10T10:00:10.392Z,54.73
2019-05-10T10:02:47.852Z,50.91
2019-05-10T10:05:17.786Z,54.39
2019-05-10T10:07:48.270Z,52.93
2019-05-10T10:10:29.012Z,54.42
2019-05-10T10:12:58.425Z,53.87
2019-05-10T10:15:33.610Z,52.42
2019-05-10T10:18:00.315Z,53.10
2019-05-10T10:20:35.951Z,53.36
2019-05-10T10:23:07.324Z,55.42
2019-05-10T10:25:40.880Z,53.42
2019-05-10T10:28:22.560Z,57.09
2019-05-10T10:30:50.417Z,56.70
2019-05-10T10:33:25.373Z,55.66
2019-05-10T10:35:56.518Z,57.51
2019-05-10T10:38:30.641Z,57.33
2019-05-10T10:40:59.860Z,56.24
2019-05-10T10:43:31.378Z,56.23
2019-05-10T10:46:02.951Z,54.66
2019-05-10T10:48:36.835Z,55.83
2019-05-10T10:51:08.168Z,56.99
2019-05-10T10:53:39.819Z,57.10
2019-05-10T10:56:11.125Z,57.86
2019-05-10T10:58:42.611Z,56.24
2019-05-10T11:01:21.405Z,56.55
2019-05-10T11:03:48.931Z,58.90
2019-05-10T11:06:20.626Z,58.50
2019-05-10T11:08:52.020Z,58.51
2019-05-10T11:11:23.510Z,59.85
2019-05-10T11:14:00.659Z,61.22
2019-05-10T11:16:27.929Z,60.67
2019-05-10T11:19:03.687Z,59.57
2019-05-10T11:21:33.409Z,59.95
2019-05-10T11:24:10.512Z,59.18
2019-05-10T11:26:38.015Z,56.17
2019-05-10T11:29:15.885Z,56.04
2019-05-10T11:31:42.570Z,56.44
2019-05-10T11:34:13.944Z,54.06
2019-05-10T11:36:45.961Z,53.71
2019-05-10T11:39:26.183Z,52.78
2019-05-10T11:42:00.971Z,54.66
2019-05-10T11:44:25.944Z,54.33
2019-05-10T11:46:57.373Z,53.60
2019-05-10T11:49:30.750Z,55.08
2019-05-10T11:52:02.041Z,54.91
2019-05-10T11:54:33.616Z,53.98
2019-05-10T11:57:09.775Z,54.28
2019-05-10T11:59:41.458Z,53.49
2019-05-10T12:02:33.934Z,56.37
2019-05-10T12:04:45.451Z,55.89
2019-05-10T12:07:24.645Z,54.96
2019-05-10T12:09:53.329Z,55.69
2019-05-10T12:12:30.645Z,55.60
2019-05-10T12:14:57.039Z,57.00
2019-05-10T12:17:28.327Z,52.58
2019-05-10T12:20:02.555Z,52.97
2019-05-10T12:22:38.188Z,53.92
2019-05-10T12:25:32.316Z,52.50
2019-05-10T12:27:47.874Z,53.44
2019-05-10T12:30:16.114Z,53.34
2019-05-10T12:32:56.514Z,55.15
2019-05-10T12:35:21.491Z,55.98
2019-05-10T12:37:54.058Z,53.79
2019-05-10T12:40:25.848Z,53.76
2019-05-10T12:42:57.269Z,53.57
2019-05-10T12:45:30.843Z,53.60
2019-05-10T12:48:01.843Z,54.42
2019-05-10T12:50:33.196Z,54.92
2019-05-10T12:53:14.195Z,54.35
2019-05-10T12:55:37.653Z,56.43
2019-05-10T12:58:08.925Z,54.87
2019-05-10T13:00:40.491Z,54.03
2019-05-10T13:03:13.398Z,55.96
2019-05-10T13:05:52.734Z,53.90
2019-05-10T13:08:18.260Z,54.33
2019-05-10T13:10:50.113Z,55.40
2019-05-10T13:13:23.696Z,56.58
2019-05-10T13:15:54.501Z,53.45
2019-05-10T13:18:48.147Z,56.12
2019-05-10T13:20:58.846Z,54.47
2019-05-10T13:23:30.278Z,52.95
2019-05-10T13:26:01.606Z,53.57
2019-05-10T13:28:32.978Z,52.66
2019-05-10T13:31:05.546Z,52.03
2019-05-10T13:33:41.765Z,51.78
2019-05-10T13:36:11.876Z,52.45
2019-05-10T13:38:48.576Z,52.29
2019-05-10T13:41:17.995Z,53.12
2019-05-10T13:43:49.461Z,53.01
2019-05-10T13:46:21.519Z,53.27
2019-05-10T13:48:52.787Z,53.97
2019-05-10T13:51:24.157Z,54.00
2019-05-10T13:53:58.917Z,54.88
2019-05-10T13:56:28.591Z,53.56
2019-05-10T13:59:13.790Z,54.06
2019-05-10T14:01:32.942Z,52.88
2019-05-10T14:04:04.236Z,53.03
2019-05-10T14:06:35.627Z,54.94
2019-05-10T14:09:08.451Z,53.60
2019-05-10T14:11:41.849Z,53.24
2019-05-10T14:14:14.666Z,54.47
2019-05-10T14:16:46.227Z,54.22
2019-05-10T14:19:23.150Z,53.72
2019-05-10T14:21:50.654Z,55.09
2019-05-10T14:24:22.175Z,55.55
2019-05-10T14:26:57.096Z,55.71
2019-05-10T14:29:34.341Z,57.45
2019-05-10T14:32:01.001Z,58.83
2019-05-10T14:34:32.463Z,61.22
2019-05-10T14:37:03.763Z,63.42
2019-05-10T14:39:35.033Z,63.52
2019-05-10T14:42:09.322Z,64.19
2019-05-10T14:44:39.725Z,63.58
2019-05-10T14:47:11.350Z,63.28
2019-05-10T14:49:47.058Z,61.88
2019-05-10T14:52:15.957Z,62.73
2019-05-10T14:54:49.833Z,63.03
2019-05-10T14:57:20.405Z,62.25
2019-05-10T14:59:51.697Z,62.51
2019-05-10T15:02:25.015Z,62.79
2019-05-10T15:04:56.263Z,63.48
2019-05-10T15:07:27.712Z,63.57
2019-05-10T15:10:00.243Z,63.69
2019-05-10T15:12:32.409Z,61.97
2019-05-10T15:15:04.246Z,63.50
2019-05-10T15:17:35.658Z,63.54
2019-05-10T15:20:08.452Z,63.38
2019-05-10T15:22:39.911Z,62.80
2019-05-10T15:25:12.195Z,61.22
2019-05-10T15:27:43.637Z,61.83
2019-05-10T15:30:15.220Z,60.73
2019-05-10T15:32:46.559Z,62.88
2019-05-10T15:35:17.908Z,61.42
2019-05-10T15:37:49.315Z,61.73
2019-05-10T15:40:21.016Z,61.35
2019-05-10T15:42:52.406Z,60.47
2019-05-10T15:45:23.728Z,60.43
2019-05-10T15:47:57.580Z,59.67
2019-05-10T15:50:32.615Z,59.52
2019-05-10T15:53:01.619Z,59.75
2019-05-10T15:55:33.982Z,57.07
2019-05-10T15:58:05.330Z,56.77
2019-05-10T16:00:39.338Z,56.80
2019-05-10T16:03:09.850Z,56.42
2019-05-10T16:05:43.845Z,57.61
2019-05-10T16:08:14.281Z,56.75
2019-05-10T16:10:45.585Z,55.91
2019-05-10T16:13:23.271Z,56.63
2019-05-10T16:15:51.757Z,56.48
2019-05-10T16:18:23.164Z,57.30
2019-05-10T16:20:54.464Z,57.60
2019-05-10T16:23:25.766Z,57.92
2019-05-10T16:25:57.228Z,59.72
2019-05-10T16:28:28.557Z,59.20
2019-05-10T16:31:00.118Z,60.07
2019-05-10T16:33:31.449Z,60.70
2019-05-10T16:36:02.770Z,60.04
2019-05-10T16:38:34.247Z,60.49
2019-05-10T16:41:05.608Z,61.66
2019-05-10T16:43:37.147Z,62.52
2019-05-10T16:46:08.495Z,62.63
2019-05-10T16:48:39.947Z,63.05
2019-05-10T16:51:12.809Z,64.48
2019-05-10T16:53:45.983Z,64.66
2019-05-10T16:56:18.669Z,64.53
2019-05-10T16:58:53.016Z,64.46
2019-05-10T17:01:25.736Z,66.65
2019-05-10T17:04:00.147Z,66.73
2019-05-10T17:06:29.998Z,67.65
2019-05-10T17:09:01.486Z,67.05
2019-05-10T17:11:33.692Z,67.84
2019-05-10T17:14:05.290Z,68.26
2019-05-10T17:16:36.815Z,68.70
2019-05-10T17:19:08.329Z,69.50
2019-05-10T17:21:39.794Z,69.97
2019-05-10T17:24:11.461Z,70.55
2019-05-10T17:26:43.119Z,70.57
2019-05-10T17:29:14.877Z,70.49
2019-05-10T17:31:47.749Z,71.09
2019-05-10T17:34:27.881Z,72.53
2019-05-10T17:36:57.845Z,73.62
2019-05-10T17:39:31.450Z,73.68
2019-05-10T17:42:03.027Z,73.46
2019-05-10T17:44:32.231Z,74.31
2019-05-10T17:47:03.527Z,74.98
2019-05-10T17:49:35.132Z,75.53
2019-05-10T17:52:06.620Z,76.17
2019-05-10T17:54:39.358Z,76.59
2019-05-10T17:57:16.809Z,76.69
2019-05-10T17:59:46.934Z,77.32
2019-05-10T18:02:17.540Z,77.69
2019-05-10T18:04:50.308Z,77.70
2019-05-10T18:07:21.676Z,78.14
2019-05-10T18:09:53.297Z,78.71
2019-05-10T18:12:27.101Z,79.46
2019-05-10T18:14:58.022Z,80.30
2019-05-10T18:17:29.550Z,80.80
2019-05-10T18:20:02.395Z,81.00
2019-05-10T18:22:41.837Z,81.19
2019-05-10T18:25:13.186Z,81.11
2019-05-10T18:27:40.799Z,81.26
2019-05-10T18:30:12.721Z,81.40
2019-05-10T18:32:45.370Z,81.31
2019-05-10T18:35:17.182Z,81.93
2019-05-10T18:37:53.706Z,82.05
2019-05-10T18:40:25.399Z,81.50
2019-05-10T18:42:57.712Z,81.96
2019-05-10T18:45:29.826Z,82.09
2019-05-10T18:48:01.663Z,82.12
2019-05-10T18:50:33.164Z,82.77
2019-05-10T18:53:04.547Z,83.26
2019-05-10T18:55:35.967Z,82.59
2019-05-10T18:58:07.453Z,82.26
2019-05-10T19:00:40.276Z,81.91
2019-05-10T19:03:11.697Z,82.17
2019-05-10T19:05:43.192Z,82.77
2019-05-10T19:08:14.704Z,82.79
2019-05-10T19:10:46.228Z,82.56
2019-05-10T19:13:18.314Z,82.79
2019-05-10T19:15:53.101Z,83.04
2019-05-10T19:18:25.423Z,82.98
2019-05-10T19:20:56.588Z,82.91
2019-05-10T19:23:28.028Z,83.19
2019-05-10T19:25:59.604Z,83.19
2019-05-10T19:28:31.048Z,83.62
2019-05-10T19:31:02.485Z,83.79
2019-05-10T19:33:36.162Z,83.80
2019-05-10T19:36:12.187Z,83.70
2019-05-10T19:38:40.480Z,83.74
2019-05-10T19:41:11.981Z,83.68
2019-05-10T19:43:43.357Z,83.66
2019-05-10T19:46:14.880Z,84.42
2019-05-10T19:48:46.277Z,83.79
2019-05-10T19:51:17.691Z,83.71
2019-05-10T19:53:49.176Z,84.05
2019-05-10T19:56:20.745Z,84.36
2019-05-10T19:58:52.101Z,84.37
2019-05-10T20:01:23.581Z,84.10
2019-05-10T20:03:54.953Z,84.33
2019-05-10T20:06:26.380Z,84.44
2019-05-10T20:08:57.773Z,85.12
2019-05-10T20:11:29.195Z,84.62
2019-05-10T20:14:00.675Z,84.53
2019-05-10T20:16:32.169Z,84.37
2019-05-10T20:19:03.774Z,83.95
2019-05-10T20:21:35.243Z,84.50
2019-05-10T20:24:08.497Z,84.75
2019-05-10T20:26:40.033Z,83.86
2019-05-10T20:29:11.761Z,84.40
2019-05-10T20:31:43.177Z,84.47
2019-05-10T20:34:14.623Z,84.43
2019-05-10T20:36:46.099Z,84.62
2019-05-10T20:39:17.534Z,85.10
2019-05-10T20:41:49.146Z,84.73
2019-05-10T20:44:20.380Z,84.88
2019-05-10T20:46:51.814Z,84.90
2019-05-10T20:49:23.188Z,85.01
2019-05-10T20:51:54.731Z,85.31
2019-05-10T20:54:26.133Z,84.85
2019-05-10T20:56:57.593Z,85.46
2019-05-10T20:59:28.992Z,84.71
2019-05-10T21:02:00.404Z,84.68
2019-05-10T21:04:32.934Z,84.90
2019-05-10T21:07:04.445Z,84.40
2019-05-10T21:09:36.040Z,84.70
2019-05-10T21:12:07.545Z,84.66
2019-05-10T21:14:38.907Z,84.29
2019-05-10T21:17:10.726Z,84.34
2019-05-10T21:19:43.275Z,84.32
2019-05-10T21:22:15.435Z,83.11
2019-05-10T21:24:46.830Z,83.16
2019-05-10T21:27:18.305Z,83.83
2019-05-10T21:29:49.823Z,83.63
2019-05-10T21:32:21.420Z,82.91
2019-05-10T21:34:52.908Z,81.82
2019-05-10T21:37:24.347Z,82.28
2019-05-10T21:39:55.708Z,82.43
2019-05-10T21:42:27.310Z,82.64
2019-05-10T21:44:58.689Z,82.72
2019-05-10T21:47:30.122Z,82.08
2019-05-10T21:50:01.593Z,81.61
2019-05-10T21:52:33.078Z,81.78
2019-05-10T21:55:04.792Z,81.48
2019-05-10T21:57:36.198Z,81.49
2019-05-10T22:00:09.942Z,81.85
2019-05-10T22:02:43.040Z,81.37
2019-05-10T22:05:14.499Z,81.29
2019-05-10T22:07:45.990Z,81.44
2019-05-10T22:10:17.660Z,81.79
2019-05-10T22:12:49.284Z,81.58
2019-05-10T22:15:20.652Z,81.74
2019-05-10T22:17:52.193Z,81.79
2019-05-10T22:20:23.598Z,81.33
2019-05-10T22:22:55.085Z,81.54
2019-05-10T22:25:26.488Z,82.19
2019-05-10T22:27:58.106Z,82.72
2019-05-10T22:30:29.797Z,82.28
2019-05-10T22:33:01.291Z,82.36
2019-05-10T22:35:32.813Z,82.58
2019-05-10T22:38:04.294Z,82.83
2019-05-10T22:40:35.701Z,82.09
2019-05-10T22:43:07.288Z,82.26
2019-05-10T22:45:38.803Z,82.89
2019-05-10T22:48:10.500Z,82.84
2019-05-10T22:50:41.843Z,83.45
2019-05-10T22:53:13.342Z,83.53
2019-05-10T22:55:44.806Z,83.59
2019-05-10T22:58:16.292Z,84.10
2019-05-10T23:00:47.702Z,83.60
2019-05-10T23:03:24.173Z,83.56
2019-05-10T23:05:53.070Z,83.72
2019-05-10T23:08:24.551Z,83.71
2019-05-10T23:10:55.972Z,83.89
2019-05-10T23:13:27.475Z,83.94
2019-05-10T23:15:58.975Z,83.61
2019-05-10T23:18:30.397Z,83.52
2019-05-10T23:21:03.515Z,82.50
2019-05-10T23:23:34.939Z,82.69
2019-05-10T23:26:06.408Z,82.65
2019-05-10T23:28:37.811Z,82.91
2019-05-10T23:31:09.387Z,83.81
2019-05-10T23:33:41.016Z,84.50
2019-05-10T23:36:12.373Z,83.66
2019-05-10T23:38:43.862Z,84.14
2019-05-10T23:41:15.313Z,83.24
2019-05-10T23:43:46.748Z,82.98
2019-05-10T23:46:18.299Z,82.71
2019-05-10T23:48:49.811Z,82.62
2019-05-10T23:51:21.143Z,82.20
2019-05-10T23:53:52.522Z,82.16
2019-05-10T23:56:23.907Z,82.06
2019-05-10T23:58:55.303Z,81.90
